Time;durP1;ratioP1;P1;durP2;ratioP2;P2;SDS_P1;SDS_P2;PMS_P1;PMS_P2;Temp;Humidity;BMP_temperature;BMP_pressure;BME280_temperature;BME280_humidity;BME280_pressure;Samples;Min_cycle;Max_cycle;Signal;HPM_P1;HPM_P2
2023/11/15 00:01:25;;;;;;;2.58;0.95;;;17.80;75.40;;;;;;6082885;29;20063;-76
2023/11/15 00:04:29;;;;;;;1.52;0.70;;;17.70;75.00;;;;;;6083665;29;20031;-74
2023/11/15 00:07:37;;;;;;;0.98;0.82;;;17.70;74.90;;;;;;6099996;29;20452;-74
2023/11/15 00:10:41;;;;;;;1.02;0.68;;;17.70;74.60;;;;;;6099565;29;20342;-75
2023/11/15 00:13:42;;;;;;;6.20;1.00;;;17.70;74.20;;;;;;6099491;29;20370;-74
2023/11/15 00:16:44;;;;;;;4.80;0.80;;;17.70;73.80;;;;;;6099378;29;20226;-75
2023/11/15 00:19:47;;;;;;;2.10;1.15;;;17.70;73.40;;;;;;6082330;29;20067;-75
2023/11/15 00:22:51;;;;;;;3.08;1.17;;;17.60;73.00;;;;;;6099560;29;20070;-74
2023/11/15 00:25:54;;;;;;;2.65;1.30;;;17.60;73.10;;;;;;6098402;29;20044;-74
2023/11/15 00:28:57;;;;;;;5.57;1.00;;;17.60;73.30;;;;;;6099317;29;20089;-75
2023/11/15 00:31:59;;;;;;;0.82;0.70;;;17.70;73.40;;;;;;6082266;29;20482;-74
2023/11/15 00:35:01;;;;;;;2.95;1.20;;;17.70;73.00;;;;;;6081865;29;20032;-75
2023/11/15 00:38:04;;;;;;;1.25;0.60;;;17.60;72.60;;;;;;6094213;29;20130;-75
2023/11/15 00:41:08;;;;;;;0.82;0.55;;;17.60;73.50;;;;;;6098619;29;20052;-74
2023/11/15 00:44:12;;;;;;;2.20;0.40;;;17.60;72.20;;;;;;6098659;29;20042;-76
2023/11/15 00:47:15;;;;;;;0.73;0.30;;;17.60;71.70;;;;;;6091022;29;20062;-75
2023/11/15 00:50:22;;;;;;;0.50;0.30;;;17.50;70.70;;;;;;6098516;29;20028;-75
2023/11/15 00:53:25;;;;;;;1.98;0.50;;;17.50;69.80;;;;;;6098772;29;20494;-75
2023/11/15 00:56:28;;;;;;;0.60;0.40;;;17.50;69.20;;;;;;6112848;29;20162;-75
2023/11/15 00:59:37;;;;;;;1.83;0.73;;;17.40;69.10;;;;;;6097583;29;20032;-75
2023/11/15 01:02:46;;;;;;;0.52;0.32;;;17.40;69.30;;;;;;6113253;29;20036;-75
2023/11/15 01:05:49;;;;;;;7.32;0.57;;;17.40;68.90;;;;;;6098107;29;20047;-75
2023/11/15 01:08:52;;;;;;;0.85;0.43;;;17.40;68.20;;;;;;6112907;29;20215;-75
2023/11/15 01:11:56;;;;;;;4.40;0.50;;;17.30;67.60;;;;;;6097338;29;20060;-74
2023/11/15 01:15:00;;;;;;;4.63;0.40;;;17.30;67.40;;;;;;6098080;29;20055;-75
2023/11/15 01:18:07;;;;;;;1.63;0.50;;;17.30;67.20;;;;;;6098742;29;20413;-75
2023/11/15 01:21:11;;;;;;;0.40;0.30;;;17.30;66.70;;;;;;6096906;29;20063;-74
2023/11/15 01:24:13;;;;;;;1.30;0.60;;;17.30;65.80;;;;;;6098620;29;20040;-76
2023/11/15 01:27:15;;;;;;;0.50;0.30;;;17.20;66.20;;;;;;6096955;29;20100;-76
2023/11/15 01:30:17;;;;;;;1.25;0.40;;;17.20;64.80;;;;;;6097900;29;20115;-74
2023/11/15 01:33:19;;;;;;;1.17;0.60;;;17.20;64.70;;;;;;6097729;29;20495;-75
2023/11/15 01:36:21;;;;;;;1.30;0.30;;;17.20;64.70;;;;;;6112711;29;20046;-75
2023/11/15 01:39:23;;;;;;;2.42;0.60;;;17.20;64.20;;;;;;6097665;29;20050;-75
2023/11/15 01:42:26;;;;;;;1.40;0.43;;;17.20;63.40;;;;;;6096299;29;20126;-76
2023/11/15 01:45:27;;;;;;;0.90;0.30;;;17.10;63.00;;;;;;6097898;29;20032;-75
2023/11/15 01:48:30;;;;;;;2.20;0.50;;;17.10;62.80;;;;;;6097886;29;20457;-75
2023/11/15 01:51:33;;;;;;;2.17;0.40;;;17.10;62.60;;;;;;6080411;29;20071;-75
2023/11/15 01:54:35;;;;;;;0.65;0.35;;;17.10;63.00;;;;;;6097420;29;20628;-76
2023/11/15 01:57:38;;;;;;;0.20;0.20;;;17.00;63.40;;;;;;6097428;29;20091;-74
2023/11/15 02:00:41;;;;;;;1.35;0.47;;;17.00;63.70;;;;;;6080453;29;20039;-75
2023/11/15 02:03:45;;;;;;;0.52;0.32;;;17.00;63.40;;;;;;6080589;29;20039;-75
2023/11/15 02:06:46;;;;;;;2.30;0.75;;;16.90;63.10;;;;;;6097065;29;20040;-75
2023/11/15 02:09:48;;;;;;;3.60;0.77;;;16.90;62.70;;;;;;6078952;29;20044;-75
2023/11/15 02:12:52;;;;;;;1.17;0.40;;;16.80;62.90;;;;;;6080355;29;20168;-74
2023/11/15 02:16:01;;;;;;;0.73;0.32;;;16.80;62.30;;;;;;6079871;29;20342;-76
2023/11/15 02:19:04;;;;;;;1.60;0.50;;;16.80;62.50;;;;;;6080547;29;20051;-75
2023/11/15 02:22:07;;;;;;;2.15;0.63;;;16.70;61.40;;;;;;6115665;29;20042;-75
2023/11/15 02:25:10;;;;;;;2.10;0.60;;;16.70;61.10;;;;;;6103255;29;20043;-74
2023/11/15 02:28:13;;;;;;;1.27;0.20;;;16.60;60.80;;;;;;6121410;29;20056;-76
2023/11/15 02:31:21;;;;;;;2.30;0.52;;;16.60;60.80;;;;;;6120787;29;20024;-75
2023/11/15 02:34:22;;;;;;;0.60;0.30;;;16.50;61.00;;;;;;6120734;29;20104;-76
2023/11/15 02:37:25;;;;;;;0.90;0.30;;;16.50;60.90;;;;;;6120374;29;20172;-74
2023/11/15 02:40:27;;;;;;;3.40;1.00;;;16.50;61.20;;;;;;6120487;29;20028;-74
2023/11/15 02:43:30;;;;;;;3.10;0.32;;;16.40;60.90;;;;;;6120653;29;20417;-74
2023/11/15 02:46:32;;;;;;;5.40;0.40;;;16.40;61.00;;;;;;6096193;29;20324;-75
2023/11/15 02:49:34;;;;;;;9.07;0.30;;;16.30;61.20;;;;;;6111610;29;20087;-75
2023/11/15 02:52:37;;;;;;;2.40;0.30;;;16.30;61.00;;;;;;6093629;29;20433;-75
2023/11/15 02:55:41;;;;;;;18.15;0.73;;;16.30;60.60;;;;;;6111688;29;20047;-75
2023/11/15 02:58:44;;;;;;;4.85;0.57;;;16.20;61.10;;;;;;6097384;29;20442;-75
2023/11/15 03:01:47;;;;;;;6.28;0.65;;;16.10;60.40;;;;;;6096691;29;20052;-75
2023/11/15 03:04:50;;;;;;;0.75;0.50;;;16.10;60.40;;;;;;6095940;29;20489;-75
2023/11/15 03:07:52;;;;;;;3.20;0.80;;;16.10;60.50;;;;;;6111517;29;20032;-75
2023/11/15 03:10:54;;;;;;;0.90;0.40;;;16.20;59.90;;;;;;6096554;29;20034;-75
2023/11/15 03:13:58;;;;;;;4.28;0.68;;;16.10;59.30;;;;;;6096586;29;20038;-75
2023/11/15 03:17:12;;;;;;;0.60;0.20;;;16.10;58.80;;;;;;6096939;29;20044;-74
2023/11/15 03:20:15;;;;;;;0.20;0.20;;;16.10;58.80;;;;;;6096230;29;20441;-75
2023/11/15 03:23:19;;;;;;;3.70;0.60;;;16.20;58.90;;;;;;6096352;29;20028;-75
2023/11/15 03:26:22;;;;;;;1.27;0.38;;;16.20;59.10;;;;;;6079833;29;20066;-75
2023/11/15 03:29:26;;;;;;;0.15;0.15;;;16.20;58.70;;;;;;6100971;29;20028;-74
2023/11/15 03:32:30;;;;;;;1.60;0.50;;;16.30;58.90;;;;;;6114751;29;20629;-74
2023/11/15 03:35:32;;;;;;;3.92;0.47;;;16.30;58.60;;;;;;6101341;29;20163;-75
2023/11/15 03:38:36;;;;;;;1.63;0.60;;;16.30;58.60;;;;;;6100196;29;20586;-74
2023/11/15 03:41:57;;;;;;;1.58;0.50;;;16.30;58.40;;;;;;6074276;29;20056;-74
2023/11/15 03:45:01;;;;;;;5.75;0.52;;;16.40;58.10;;;;;;6043124;29;20052;-74
2023/11/15 03:48:03;;;;;;;0.32;0.22;;;16.30;57.90;;;;;;6035112;29;20514;-74
2023/11/15 03:51:07;;;;;;;1.60;0.30;;;16.30;58.20;;;;;;6050504;29;20048;-74
2023/11/15 03:54:27;;;;;;;4.97;1.02;;;16.30;58.10;;;;;;6050370;29;20079;-75
2023/11/15 03:57:28;;;;;;;1.10;0.22;;;16.20;58.20;;;;;;6050495;29;20065;-75
2023/11/15 04:00:31;;;;;;;0.40;0.30;;;16.20;58.40;;;;;;6049819;29;20043;-75
2023/11/15 04:03:35;;;;;;;7.20;0.30;;;16.20;58.30;;;;;;6050307;29;20109;-75
2023/11/15 04:06:36;;;;;;;0.30;0.30;;;16.10;58.90;;;;;;6050109;29;20380;-74
2023/11/15 04:09:40;;;;;;;0.65;0.40;;;16.10;59.50;;;;;;6050016;29;20546;-76
2023/11/15 04:12:44;;;;;;;2.63;0.60;;;16.20;59.90;;;;;;6061747;29;20092;-75
2023/11/15 04:15:45;;;;;;;0.30;0.17;;;16.10;60.50;;;;;;6072950;29;20411;-75
2023/11/15 04:18:46;;;;;;;0.82;0.40;;;16.10;61.00;;;;;;6073092;29;20599;-74
2023/11/15 04:21:48;;;;;;;0.65;0.52;;;16.10;61.40;;;;;;6072967;29;20036;-75
2023/11/15 04:24:52;;;;;;;4.93;0.43;;;16.10;61.80;;;;;;6082885;29;20047;-75
2023/11/15 04:27:55;;;;;;;1.60;0.38;;;16.10;61.90;;;;;;6099041;29;20133;-75
2023/11/15 04:30:58;;;;;;;1.35;0.30;;;16.10;62.10;;;;;;6098787;29;20425;-74
2023/11/15 04:34:02;;;;;;;0.52;0.30;;;16.10;62.30;;;;;;6097873;29;20414;-74
2023/11/15 04:37:05;;;;;;;0.90;0.82;;;16.10;62.50;;;;;;6099149;29;20118;-75
2023/11/15 04:40:10;;;;;;;2.47;0.47;;;16.10;62.70;;;;;;6098593;29;20029;-76
2023/11/15 04:43:12;;;;;;;2.38;0.40;;;16.20;62.80;;;;;;6099731;29;20032;-76
2023/11/15 04:46:15;;;;;;;2.72;0.50;;;16.20;63.00;;;;;;6084308;29;20036;-74
2023/11/15 04:49:18;;;;;;;4.75;0.60;;;16.20;63.10;;;;;;6098611;29;20051;-75
2023/11/15 04:52:19;;;;;;;1.30;0.30;;;16.30;63.20;;;;;;6098758;29;20042;-74
2023/11/15 04:55:20;;;;;;;4.22;0.60;;;16.20;63.10;;;;;;6098205;29;20127;-75
2023/11/15 04:58:25;;;;;;;0.40;0.20;;;16.30;63.20;;;;;;6096986;29;20063;-75
2023/11/15 05:01:29;;;;;;;0.47;0.22;;;16.30;63.30;;;;;;6097928;29;20382;-76
2023/11/15 05:04:33;;;;;;;2.97;0.40;;;16.30;63.30;;;;;;6098259;29;20417;-75
2023/11/15 05:07:36;;;;;;;1.75;0.50;;;16.30;63.30;;;;;;6096815;29;20043;-74
2023/11/15 05:10:39;;;;;;;3.13;0.60;;;16.30;63.20;;;;;;6098054;29;20453;-76
2023/11/15 05:13:41;;;;;;;0.70;0.55;;;16.20;63.10;;;;;;6098303;29;20371;-75
2023/11/15 05:16:44;;;;;;;0.85;0.57;;;16.20;63.30;;;;;;6097112;29;20044;-75
2023/11/15 05:19:48;;;;;;;0.63;0.63;;;16.10;63.50;;;;;;6096515;29;20039;-75
2023/11/15 05:22:50;;;;;;;3.03;0.52;;;16.10;63.60;;;;;;6098206;29;20115;-76
2023/11/15 05:25:53;;;;;;;0.68;0.35;;;16.10;63.80;;;;;;6098168;29;20040;-76
2023/11/15 05:28:55;;;;;;;2.53;0.45;;;16.00;63.90;;;;;;6096686;29;20066;-75
2023/11/15 05:31:58;;;;;;;2.10;0.55;;;16.00;64.00;;;;;;6097692;29;20032;-75
2023/11/15 05:35:01;;;;;;;2.55;0.68;;;16.00;64.00;;;;;;6098829;29;20460;-74
2023/11/15 05:38:04;;;;;;;7.18;0.88;;;15.90;63.90;;;;;;6096837;29;20126;-74
2023/11/15 05:41:09;;;;;;;2.55;1.05;;;15.90;63.50;;;;;;6097260;29;20525;-74
2023/11/15 05:44:10;;;;;;;8.68;1.00;;;15.90;63.10;;;;;;6097606;29;20086;-76
2023/11/15 05:47:13;;;;;;;4.18;1.40;;;15.90;63.00;;;;;;6086321;29;20217;-75
2023/11/15 05:50:15;;;;;;;3.55;0.75;;;15.80;62.50;;;;;;6080094;29;20085;-74
2023/11/15 05:53:17;;;;;;;11.52;0.98;;;15.70;62.50;;;;;;6097186;29;20036;-74
2023/11/15 05:56:20;;;;;;;4.53;1.20;;;15.60;62.70;;;;;;6097379;29;20127;-74
2023/11/15 05:59:22;;;;;;;1.73;0.73;;;15.50;63.00;;;;;;6080706;29;20160;-75
2023/11/15 06:02:25;;;;;;;1.88;0.60;;;15.40;63.30;;;;;;6097032;29;20032;-75
2023/11/15 06:05:29;;;;;;;4.28;0.80;;;15.40;63.60;;;;;;6097040;29;20334;-74
2023/11/15 06:08:31;;;;;;;4.05;1.60;;;15.30;63.60;;;;;;6079842;29;20123;-74
2023/11/15 06:11:33;;;;;;;2.63;1.08;;;15.30;64.00;;;;;;6080287;29;20040;-76
2023/11/15 06:14:35;;;;;;;3.75;1.08;;;15.30;64.30;;;;;;6097362;29;20588;-75
2023/11/15 06:17:41;;;;;;;4.50;0.75;;;15.30;64.40;;;;;;6097366;29;20072;-75
2023/11/15 06:20:43;;;;;;;3.58;1.38;;;15.20;64.30;;;;;;6097112;29;20128;-76
2023/11/15 06:23:46;;;;;;;5.78;1.00;;;15.40;64.60;;;;;;6097292;29;20063;-75
2023/11/15 06:26:51;;;;;;;3.70;0.88;;;15.40;64.70;;;;;;6080338;29;20036;-75
2023/11/15 06:29:59;;;;;;;3.58;0.80;;;15.40;64.70;;;;;;6097027;29;20040;-74
2023/11/15 06:33:01;;;;;;;0.45;0.40;;;15.50;64.90;;;;;;6080030;29;20457;-76
2023/11/15 06:36:03;;;;;;;1.67;0.80;;;15.50;65.00;;;;;;6079802;29;20059;-75
2023/11/15 06:39:10;;;;;;;2.05;0.73;;;15.50;65.00;;;;;;6079733;29;20028;-75
2023/11/15 06:42:12;;;;;;;1.33;0.60;;;15.50;65.00;;;;;;6079509;29;20047;-75
2023/11/15 06:45:14;;;;;;;0.82;0.50;;;15.60;65.20;;;;;;6079442;29;20024;-74
2023/11/15 06:48:18;;;;;;;1.45;0.80;;;15.60;65.30;;;;;;6095481;29;20051;-74
2023/11/15 06:51:26;;;;;;;5.35;0.75;;;15.60;65.40;;;;;;6096452;29;20530;-76
2023/11/15 06:54:30;;;;;;;3.05;1.17;;;15.70;65.50;;;;;;6096822;29;20029;-74
2023/11/15 06:57:34;;;;;;;2.20;0.70;;;15.70;65.30;;;;;;6096507;29;20176;-74
2023/11/15 07:00:35;;;;;;;1.38;0.50;;;15.70;65.20;;;;;;6096342;29;20024;-75
2023/11/15 07:03:36;;;;;;;3.85;0.90;;;15.70;65.10;;;;;;6100151;29;20032;-75
2023/11/15 07:06:45;;;;;;;3.78;1.15;;;15.70;65.00;;;;;;6098908;29;20067;-76
2023/11/15 07:09:47;;;;;;;3.10;1.02;;;15.70;65.10;;;;;;6101593;29;20043;-75
2023/11/15 07:12:51;;;;;;;1.50;0.60;;;15.60;65.00;;;;;;6084764;29;20048;-75
2023/11/15 07:16:02;;;;;;;4.90;1.35;;;15.70;65.20;;;;;;6116025;29;20048;-76
2023/11/15 07:19:08;;;;;;;1.88;0.82;;;15.80;65.40;;;;;;6098189;29;20403;-76
2023/11/15 07:22:12;;;;;;;3.10;1.10;;;15.70;65.30;;;;;;6084118;29;20036;-75
2023/11/15 07:25:36;;;;;;;2.75;1.05;;;15.80;65.50;;;;;;6089547;29;20144;-76
2023/11/15 07:28:41;;;;;;;3.95;0.93;;;15.80;65.40;;;;;;6073910;29;20045;-74
2023/11/15 07:31:56;;;;;;;6.30;0.98;;;15.80;65.40;;;;;;6073726;29;20036;-76
2023/11/15 07:34:59;;;;;;;6.10;0.98;;;15.90;65.30;;;;;;6073944;29;20149;-75
2023/11/15 07:38:02;;;;;;;3.60;1.25;;;15.90;65.10;;;;;;6073783;29;20048;-76
2023/11/15 07:41:04;;;;;;;2.72;0.77;;;15.90;65.10;;;;;;6073622;29;20092;-76
2023/11/15 07:44:07;;;;;;;5.07;1.10;;;16.00;65.20;;;;;;6073406;29;20106;-75
2023/11/15 07:47:13;;;;;;;5.60;1.13;;;16.00;64.80;;;;;;6056090;29;20404;-75
2023/11/15 07:50:15;;;;;;;4.45;1.58;;;16.00;64.60;;;;;;6034092;29;20033;-75
2023/11/15 07:53:19;;;;;;;1.65;0.95;;;16.00;64.50;;;;;;6034807;29;20037;-75
2023/11/15 07:56:23;;;;;;;3.70;1.13;;;15.90;64.50;;;;;;6076814;29;20159;-74
2023/11/15 07:59:26;;;;;;;3.20;0.80;;;16.10;64.60;;;;;;6101260;29;20071;-75
2023/11/15 08:02:29;;;;;;;1.17;0.88;;;16.10;64.60;;;;;;6100971;29;20413;-76
2023/11/15 08:05:31;;;;;;;4.07;1.20;;;16.10;64.50;;;;;;6100511;29;20446;-74
2023/11/15 08:08:37;;;;;;;2.28;1.40;;;16.10;64.30;;;;;;6106886;29;20036;-73
2023/11/15 08:11:39;;;;;;;2.72;1.00;;;16.20;64.40;;;;;;6067395;29;20040;-75
2023/11/15 08:14:41;;;;;;;3.05;1.15;;;16.20;64.40;;;;;;6098489;29;20143;-74
2023/11/15 08:17:46;;;;;;;2.50;1.00;;;16.20;64.30;;;;;;6099330;29;20377;-76
2023/11/15 08:20:49;;;;;;;7.63;0.93;;;16.30;64.20;;;;;;6082106;29;20118;-76
2023/11/15 08:23:51;;;;;;;4.63;1.30;;;16.30;63.80;;;;;;6083397;29;20705;-74
2023/11/15 08:26:58;;;;;;;1.23;0.90;;;16.30;63.50;;;;;;6099497;29;20063;-75
2023/11/15 08:30:05;;;;;;;7.05;1.08;;;16.40;63.50;;;;;;6098638;29;20117;-76
2023/11/15 08:33:16;;;;;;;4.15;1.30;;;16.50;63.50;;;;;;6099054;29;20131;-75
2023/11/15 08:36:22;;;;;;;2.35;1.00;;;16.60;63.30;;;;;;6097942;29;20361;-75
2023/11/15 08:39:25;;;;;;;3.55;1.27;;;16.60;62.80;;;;;;6099868;29;20055;-75
2023/11/15 08:42:28;;;;;;;6.45;1.20;;;16.60;62.70;;;;;;6081729;29;20119;-75
2023/11/15 08:45:31;;;;;;;2.63;1.23;;;16.70;62.60;;;;;;6098707;29;20115;-76
2023/11/15 08:48:39;;;;;;;6.20;1.38;;;16.70;62.30;;;;;;6099051;29;20032;-76
2023/11/15 08:51:47;;;;;;;;;;;16.70;62.00;;;;;;6104081;29;20143;-75
2023/11/15 08:55:11;;;;;;;1.83;1.00;;;16.70;62.10;;;;;;6101800;29;20038;-75
2023/11/15 08:58:14;;;;;;;7.30;0.80;;;16.80;61.90;;;;;;6101079;29;20056;-75
2023/11/15 09:01:24;;;;;;;1.35;0.73;;;16.80;61.60;;;;;;6098012;29;20103;-76
2023/11/15 09:04:26;;;;;;;1.45;0.80;;;16.80;61.20;;;;;;6083309;29;20032;-75
2023/11/15 09:07:29;;;;;;;2.50;1.40;;;16.90;61.10;;;;;;6116117;29;20390;-75
2023/11/15 09:10:31;;;;;;;1.80;0.93;;;16.90;60.80;;;;;;6101440;29;20043;-76
2023/11/15 09:13:33;;;;;;;2.22;0.85;;;17.00;60.50;;;;;;6100372;29;20036;-76
2023/11/15 09:16:34;;;;;;;1.52;0.65;;;17.20;60.50;;;;;;6101538;29;20044;-75
2023/11/15 09:19:46;;;;;;;4.18;0.95;;;17.20;59.70;;;;;;6103364;29;20114;-76
2023/11/15 09:22:53;;;;;;;5.60;1.02;;;17.30;59.60;;;;;;6102234;29;20174;-77
2023/11/15 09:25:59;;;;;;;8.25;1.10;;;17.40;59.50;;;;;;6099946;29;20031;-75
2023/11/15 09:29:02;;;;;;;3.47;1.38;;;17.40;59.20;;;;;;6099874;29;20027;-76
2023/11/15 09:32:05;;;;;;;3.47;1.10;;;17.50;59.30;;;;;;6099145;29;20055;-75
2023/11/15 09:35:10;;;;;;;4.10;1.38;;;17.50;59.40;;;;;;6081868;29;20473;-74
2023/11/15 09:38:13;;;;;;;7.22;1.27;;;17.60;59.30;;;;;;6066762;29;20032;-76
2023/11/15 09:41:19;;;;;;;16.33;3.15;;;17.80;59.40;;;;;;6098502;29;20473;-78
2023/11/15 09:44:23;;;;;;;3.13;1.60;;;17.90;58.90;;;;;;6096778;29;20046;-75
2023/11/15 09:47:26;;;;;;;8.50;1.67;;;18.00;58.90;;;;;;6085083;29;20415;-77
2023/11/15 09:50:33;;;;;;;3.80;1.13;;;18.20;58.80;;;;;;6081120;29;20043;-76
2023/11/15 09:53:36;;;;;;;3.95;1.35;;;18.50;57.60;;;;;;6066285;29;20361;-76
2023/11/15 09:56:37;;;;;;;1.58;0.88;;;18.80;57.10;;;;;;6097956;29;20197;-76
2023/11/15 09:59:40;;;;;;;0.80;0.38;;;19.00;56.70;;;;;;6097056;29;20294;-76
2023/11/15 10:02:42;;;;;;;5.47;1.30;;;19.20;56.00;;;;;;6064924;29;20106;-77
2023/11/15 10:05:57;;;;;;;2.03;1.10;;;19.30;55.70;;;;;;6079751;29;20052;-75
2023/11/15 10:09:00;;;;;;;2.22;1.17;;;19.40;55.30;;;;;;6097610;29;20044;-76
2023/11/15 10:12:10;;;;;;;8.70;0.90;;;19.40;55.10;;;;;;6096782;29;20063;-76
2023/11/15 10:15:14;;;;;;;5.93;1.38;;;19.30;55.00;;;;;;6081091;29;20080;-75
2023/11/15 10:18:32;;;;;;;9.57;1.67;;;19.20;54.80;;;;;;6100053;29;20119;-77
2023/11/15 10:21:35;;;;;;;7.43;1.03;;;19.10;54.60;;;;;;6083330;29;20036;-76
2023/11/15 10:24:39;;;;;;;8.27;1.70;;;19.20;54.40;;;;;;6096797;29;20272;-77
2023/11/15 10:27:41;;;;;;;7.80;0.93;;;19.40;54.60;;;;;;6080082;29;20038;-76
2023/11/15 10:30:43;;;;;;;6.75;0.90;;;19.80;53.30;;;;;;6097084;29;20111;-76
2023/11/15 10:33:53;;;;;;;3.00;0.73;;;20.20;52.40;;;;;;6096644;29;20106;-76
2023/11/15 10:37:07;;;;;;;2.25;0.70;;;20.50;51.50;;;;;;6098382;29;20052;-75
2023/11/15 10:40:11;;;;;;;3.20;0.90;;;20.90;50.70;;;;;;6101938;29;20064;-75
2023/11/15 10:43:16;;;;;;;5.15;0.80;;;21.10;48.60;;;;;;6101892;29;20036;-77
2023/11/15 10:46:31;;;;;;;3.50;1.20;;;21.30;48.20;;;;;;6087343;29;20032;-77
2023/11/15 10:49:38;;;;;;;7.57;1.00;;;21.60;47.70;;;;;;6085687;29;20119;-77
2023/11/15 10:52:46;;;;;;;3.58;0.63;;;22.10;46.40;;;;;;6116312;29;20514;-77
2023/11/15 10:55:51;;;;;;;3.85;0.73;;;22.30;45.20;;;;;;6101328;29;20052;-76
2023/11/15 10:58:57;;;;;;;4.25;1.30;;;22.50;44.40;;;;;;6101089;29;20044;-76
2023/11/15 11:02:02;;;;;;;5.05;1.17;;;22.90;44.10;;;;;;6067852;29;20075;-76
2023/11/15 11:05:07;;;;;;;8.30;1.58;;;23.20;44.40;;;;;;6099646;29;20047;-76
2023/11/15 11:08:49;;;;;;;6.57;1.13;;;23.70;43.00;;;;;;6099280;29;20183;-76
2023/11/15 11:12:13;;;;;;;2.58;0.85;;;24.30;42.30;;;;;;6101403;29;20131;-77
2023/11/15 11:15:31;;;;;;;6.28;0.80;;;24.80;40.10;;;;;;6100990;29;20036;-77
2023/11/15 11:18:34;;;;;;;6.57;0.88;;;24.80;40.30;;;;;;6099572;29;20112;-76
2023/11/15 11:22:19;;;;;;;3.22;0.80;;;24.30;40.60;;;;;;6114583;29;20482;-77
2023/11/15 11:25:22;;;;;;;4.35;0.88;;;24.40;40.70;;;;;;6073746;29;20662;-76
2023/11/15 11:28:27;;;;;;;4.45;1.63;;;24.30;40.50;;;;;;6073591;29;20423;-77
2023/11/15 11:31:27;;;;;;;5.13;1.20;;;24.40;39.70;;;;;;6073576;29;20099;-78
2023/11/15 11:34:31;;;;;;;5.22;1.05;;;24.70;38.90;;;;;;6058307;29;20091;-76
2023/11/15 11:37:44;;;;;;;3.25;0.77;;;25.20;38.60;;;;;;6073431;29;20408;-77
2023/11/15 11:40:47;;;;;;;5.95;1.00;;;25.60;37.00;;;;;;6057765;29;20343;-76
2023/11/15 11:43:59;;;;;;;3.65;0.80;;;25.40;36.40;;;;;;6073249;29;20077;-77
2023/11/15 11:47:02;;;;;;;4.35;0.77;;;24.80;37.00;;;;;;6057069;29;20041;-75
2023/11/15 11:50:06;;;;;;;6.63;0.65;;;24.10;37.60;;;;;;6049259;29;20069;-76
2023/11/15 11:53:11;;;;;;;4.70;1.10;;;23.40;38.80;;;;;;6049650;29;20512;-75
2023/11/15 11:56:14;;;;;;;7.47;0.90;;;22.70;39.00;;;;;;6049979;29;20068;-76
2023/11/15 11:59:18;;;;;;;1.65;0.50;;;22.00;40.00;;;;;;6049788;29;20025;-76
2023/11/15 12:02:33;;;;;;;2.75;0.73;;;21.60;40.90;;;;;;6072644;29;20115;-77
2023/11/15 12:05:36;;;;;;;3.25;0.70;;;21.20;41.50;;;;;;6083318;29;20065;-78
2023/11/15 12:08:58;;;;;;;6.82;0.95;;;20.80;41.80;;;;;;6100076;29;20040;-77
2023/11/15 12:12:02;;;;;;;2.60;0.28;;;20.50;42.30;;;;;;6098819;29;20031;-76
2023/11/15 12:15:13;;;;;;;5.03;0.52;;;20.40;42.60;;;;;;6066691;29;20024;-75
2023/11/15 12:18:17;;;;;;;1.58;0.57;;;20.20;42.60;;;;;;6082500;29;20226;-76
2023/11/15 12:21:24;;;;;;;1.90;0.38;;;20.00;42.40;;;;;;6099640;29;20044;-77
2023/11/15 12:24:27;;;;;;;6.63;0.60;;;19.80;42.60;;;;;;6098860;29;20062;-77
2023/11/15 12:27:34;;;;;;;4.65;0.90;;;19.60;42.90;;;;;;6099450;29;20036;-75
2023/11/15 12:30:39;;;;;;;5.07;0.80;;;19.50;43.40;;;;;;6099932;29;20036;-76
2023/11/15 12:33:41;;;;;;;6.05;0.73;;;19.60;43.60;;;;;;6101408;29;20052;-76
2023/11/15 12:36:44;;;;;;;5.80;0.93;;;19.60;43.40;;;;;;6089638;29;20036;-75
2023/11/15 12:39:46;;;;;;;2.15;0.70;;;19.60;43.50;;;;;;6098844;29;20470;-77
2023/11/15 12:42:56;;;;;;;1.35;0.50;;;19.60;43.20;;;;;;6103332;29;20172;-76
2023/11/15 12:46:12;;;;;;;11.93;1.08;;;19.60;43.10;;;;;;6100982;29;20024;-76
2023/11/15 12:49:21;;;;;;;1.90;0.45;;;19.60;42.90;;;;;;6084264;29;20040;-77
2023/11/15 12:52:36;;;;;;;2.20;0.63;;;19.50;42.70;;;;;;6081461;29;20123;-76
2023/11/15 12:55:49;;;;;;;4.22;0.77;;;19.50;42.60;;;;;;6098690;29;20411;-75
2023/11/15 12:58:54;;;;;;;4.45;0.60;;;19.50;42.40;;;;;;6098190;29;20064;-76
2023/11/15 13:01:57;;;;;;;2.10;0.60;;;19.50;42.40;;;;;;6098334;29;20089;-76
2023/11/15 13:05:05;;;;;;;8.57;1.15;;;19.50;42.30;;;;;;6112816;29;20040;-76
2023/11/15 13:08:07;;;;;;;2.58;0.77;;;19.50;42.40;;;;;;6099277;29;20406;-77
2023/11/15 13:11:18;;;;;;;3.72;0.63;;;19.40;42.70;;;;;;6112301;29;20044;-77
2023/11/15 13:14:24;;;;;;;4.35;0.80;;;19.40;42.90;;;;;;6096929;29;20123;-75
2023/11/15 13:17:28;;;;;;;2.75;0.50;;;19.30;43.10;;;;;;6097527;29;20075;-76
2023/11/15 13:20:34;;;;;;;8.00;1.15;;;19.30;43.20;;;;;;6112744;29;20028;-75
2023/11/15 13:23:42;;;;;;;2.75;0.57;;;19.20;43.30;;;;;;6098321;29;20419;-76
2023/11/15 13:26:50;;;;;;;8.05;0.75;;;19.10;43.20;;;;;;6097233;29;20347;-76
2023/11/15 13:29:54;;;;;;;8.75;1.10;;;19.00;42.90;;;;;;6095975;29;20584;-75
2023/11/15 13:32:57;;;;;;;2.45;0.32;;;19.00;42.90;;;;;;6097370;29;20087;-76
2023/11/15 13:36:00;;;;;;;1.48;0.30;;;19.00;42.90;;;;;;6096270;29;20563;-76
2023/11/15 13:39:05;;;;;;;1.85;0.88;;;18.90;42.80;;;;;;6081046;29;20382;-75
2023/11/15 13:42:10;;;;;;;2.17;0.40;;;19.00;42.50;;;;;;6096941;29;20049;-75
2023/11/15 13:45:13;;;;;;;2.33;0.40;;;19.00;42.10;;;;;;6097428;29;20100;-76
2023/11/15 13:48:22;;;;;;;9.85;0.73;;;19.00;41.90;;;;;;6064867;29;20051;-76
2023/11/15 13:51:28;;;;;;;8.20;1.25;;;19.00;42.10;;;;;;6096766;29;20042;-75
2023/11/15 13:54:34;;;;;;;3.97;0.50;;;19.00;41.60;;;;;;6097798;29;20446;-76
2023/11/15 13:57:38;;;;;;;2.03;0.60;;;18.90;41.90;;;;;;6079811;29;20071;-76
2023/11/15 14:00:41;;;;;;;8.25;1.00;;;18.90;42.00;;;;;;6096856;29;20516;-75
2023/11/15 14:03:46;;;;;;;5.90;0.63;;;18.90;41.90;;;;;;6096785;29;20731;-75
2023/11/15 14:06:47;;;;;;;3.17;1.08;;;18.90;41.90;;;;;;6079524;29;20028;-76
2023/11/15 14:09:49;;;;;;;1.75;0.52;;;18.90;42.00;;;;;;6079519;29;20436;-75
2023/11/15 14:12:53;;;;;;;7.05;0.80;;;18.90;42.20;;;;;;6095122;29;20028;-76
2023/11/15 14:15:58;;;;;;;6.60;0.95;;;18.80;42.40;;;;;;6096363;29;20043;-75
2023/11/15 14:19:09;;;;;;;3.80;0.77;;;18.80;42.40;;;;;;6096925;29;20132;-76
2023/11/15 14:22:11;;;;;;;2.40;0.63;;;18.70;42.60;;;;;;6078753;29;20135;-75
2023/11/15 14:25:23;;;;;;;4.57;0.45;;;18.60;42.70;;;;;;6096146;29;20690;-76
2023/11/15 14:28:26;;;;;;;4.07;1.40;;;18.50;42.80;;;;;;6096501;29;20046;-75
2023/11/15 14:31:30;;;;;;;3.38;0.55;;;18.40;42.80;;;;;;6094871;29;20034;-75
2023/11/15 14:34:32;;;;;;;3.28;0.80;;;18.40;43.00;;;;;;6096692;29;20118;-78
2023/11/15 14:37:34;;;;;;;3.42;0.38;;;18.30;43.10;;;;;;6095696;29;20040;-75
2023/11/15 14:40:38;;;;;;;0.93;0.40;;;18.30;43.20;;;;;;6063883;29;20051;-75
2023/11/15 14:43:45;;;;;;;1.95;0.30;;;18.20;43.40;;;;;;6098099;29;20051;-75
2023/11/15 14:46:49;;;;;;;3.65;0.88;;;18.10;43.50;;;;;;6099730;29;20107;-75
2023/11/15 14:49:51;;;;;;;3.88;0.90;;;18.10;43.70;;;;;;6099384;29;20028;-76
2023/11/15 14:56:17;;;;;;;4.05;0.57;;;18.00;44.30;;;;;;6097553;29;20445;-75
2023/11/15 14:59:19;;;;;;;7.80;0.82;;;18.00;44.40;;;;;;6096283;29;20051;-74
2023/11/15 15:02:24;;;;;;;4.28;0.80;;;18.00;44.30;;;;;;6096533;29;20032;-75
2023/11/15 15:05:25;;;;;;;1.45;0.60;;;17.90;44.30;;;;;;6096634;29;20144;-76
2023/11/15 15:08:28;;;;;;;3.33;0.82;;;17.90;44.40;;;;;;6096804;29;20090;-75
2023/11/15 15:11:32;;;;;;;8.57;0.90;;;17.80;44.30;;;;;;6110980;29;20040;-77
2023/11/15 15:14:38;;;;;;;2.00;0.60;;;17.80;44.50;;;;;;6046611;29;20060;-76
2023/11/15 15:17:43;;;;;;;4.07;0.70;;;17.70;44.80;;;;;;6072604;29;20356;-76
2023/11/15 15:20:45;;;;;;;1.13;0.40;;;17.70;44.90;;;;;;6072085;29;20156;-76
2023/11/15 15:23:47;;;;;;;3.55;0.80;;;17.70;45.10;;;;;;6074274;29;20755;-75
2023/11/15 15:26:51;;;;;;;4.00;1.27;;;17.60;45.10;;;;;;6077997;29;20059;-75
2023/11/15 15:29:59;;;;;;;1.13;0.43;;;17.60;45.10;;;;;;6075815;29;20712;-75
2023/11/15 15:33:03;;;;;;;3.08;0.90;;;17.50;45.10;;;;;;6060101;29;20033;-75
2023/11/15 15:36:05;;;;;;;3.50;0.60;;;17.50;45.30;;;;;;6076923;29;20049;-75
2023/11/15 15:39:08;;;;;;;1.92;0.60;;;17.50;45.50;;;;;;6077139;29;20080;-75
2023/11/15 15:42:11;;;;;;;8.40;0.80;;;17.40;45.70;;;;;;6076123;29;20067;-75
2023/11/15 15:45:15;;;;;;;3.00;0.70;;;17.30;45.80;;;;;;6078625;29;20473;-77
2023/11/15 15:48:17;;;;;;;7.78;0.63;;;17.30;46.00;;;;;;6100730;29;20035;-75
2023/11/15 15:51:19;;;;;;;4.50;0.60;;;17.30;46.10;;;;;;6099909;29;20024;-75
2023/11/15 15:54:22;;;;;;;2.13;0.50;;;17.20;46.30;;;;;;6115567;29;20605;-75
2023/11/15 15:57:24;;;;;;;2.80;0.73;;;17.20;46.60;;;;;;6100742;29;20084;-75
2023/11/15 16:00:27;;;;;;;4.10;0.93;;;17.20;46.90;;;;;;6100643;29;20048;-76
2023/11/15 16:03:30;;;;;;;1.30;0.60;;;17.10;47.00;;;;;;6101299;29;20115;-75
2023/11/15 16:06:32;;;;;;;1.33;0.45;;;17.10;47.20;;;;;;6111462;29;20751;-76